Halen, Belgium
Current Conditions -  °F | °C
As of 5:25 PM on Saturday 20 Dec 2014 (Local Time) from EBDT Reporting Station
Overcast Overcast  
Wind Chill: 40°   Ceiling: 3500
Heat Index: 46°   Visibility: 6mi
Dew Point: 37°   Wind: 14mph
Humidity: 71%   Direction: 280°W
Pressure: 30.24"   Gusts: NA
Location:  50.95°N, 5.11°E
Report Text: EBDT 201625Z AUTO 28012KT 9999 FEW027/// BKN035/// OVC050/// 08/03 Q1024 BLU
Loading
Personal Weather Stations






























Interactive Weather Map New forecast layout! Learn more

10-Day Weather Forecast

Advertisements
Track Severe Weather on mobile